sensor_id;sensor_type;location;lat;lon;timestamp;pressure;altitude;pressure_sealevel;temperature;humidity
18137;BME280;9194;42.632;23.298;2022-08-19T00:00:54;92426.13;;;20.05;97.34
18137;BME280;9194;42.632;23.298;2022-08-19T00:05:55;92428.06;;;20.00;94.96
18137;BME280;9194;42.632;23.298;2022-08-19T00:10:56;92421.44;;;20.02;96.31
18137;BME280;9194;42.632;23.298;2022-08-19T00:15:58;92431.41;;;20.05;95.67
18137;BME280;9194;42.632;23.298;2022-08-19T00:21:01;92435.78;;;19.96;96.09
18137;BME280;9194;42.632;23.298;2022-08-19T00:26:04;92443.13;;;19.99;94.95
18137;BME280;9194;42.632;23.298;2022-08-19T00:31:07;92443.97;;;19.95;95.88
18137;BME280;9194;42.632;23.298;2022-08-19T00:36:09;92434.84;;;20.06;93.95
18137;BME280;9194;42.632;23.298;2022-08-19T00:41:15;92435.25;;;19.94;93.88
18137;BME280;9194;42.632;23.298;2022-08-19T00:46:18;92426.81;;;19.92;94.71
18137;BME280;9194;42.632;23.298;2022-08-19T00:51:21;92426.34;;;19.90;94.90
18137;BME280;9194;42.632;23.298;2022-08-19T00:56:24;92425.88;;;19.83;96.02
18137;BME280;9194;42.632;23.298;2022-08-19T01:01:28;92418.75;;;19.84;96.35
18137;BME280;9194;42.632;23.298;2022-08-19T01:06:30;92425.44;;;19.76;96.71
18137;BME280;9194;42.632;23.298;2022-08-19T01:11:36;92421.44;;;19.79;95.59
18137;BME280;9194;42.632;23.298;2022-08-19T01:16:39;92423.38;;;19.73;96.06
18137;BME280;9194;42.632;23.298;2022-08-19T01:21:46;92414.88;;;19.76;97.28
18137;BME280;9194;42.632;23.298;2022-08-19T01:26:50;92410.94;;;19.74;97.87
18137;BME280;9194;42.632;23.298;2022-08-19T01:31:55;92418.34;;;19.72;98.03
18137;BME280;9194;42.632;23.298;2022-08-19T01:36:56;92417.63;;;19.66;98.02
18137;BME280;9194;42.632;23.298;2022-08-19T01:41:57;92421.66;;;19.58;99.05
18137;BME280;9194;42.632;23.298;2022-08-19T01:46:59;92418.28;;;19.53;100.00
18137;BME280;9194;42.632;23.298;2022-08-19T01:52:00;92414.66;;;19.44;100.00
18137;BME280;9194;42.632;23.298;2022-08-19T01:57:09;92418.16;;;19.39;100.00
18137;BME280;9194;42.632;23.298;2022-08-19T02:02:12;92420.31;;;19.32;100.00
18137;BME280;9194;42.632;23.298;2022-08-19T02:07:13;92415.44;;;19.20;100.00
18137;BME280;9194;42.632;23.298;2022-08-19T02:12:15;92416.94;;;19.26;100.00
18137;BME280;9194;42.632;23.298;2022-08-19T02:17:17;92418.00;;;19.25;100.00
18137;BME280;9194;42.632;23.298;2022-08-19T02:22:19;92417.75;;;19.22;100.00
18137;BME280;9194;42.632;23.298;2022-08-19T02:27:21;92411.72;;;19.21;100.00
18137;BME280;9194;42.632;23.298;2022-08-19T02:32:23;92420.13;;;19.23;100.00
18137;BME280;9194;42.632;23.298;2022-08-19T02:37:24;92408.78;;;19.23;100.00
18137;BME280;9194;42.632;23.298;2022-08-19T02:42:45;92419.13;;;19.19;100.00
18137;BME280;9194;42.632;23.298;2022-08-19T02:47:47;92409.09;;;19.16;100.00
18137;BME280;9194;42.632;23.298;2022-08-19T02:52:48;92416.81;;;19.13;100.00
18137;BME280;9194;42.632;23.298;2022-08-19T02:57:49;92430.00;;;19.13;100.00
18137;BME280;9194;42.632;23.298;2022-08-19T03:02:51;92425.78;;;19.12;100.00
18137;BME280;9194;42.632;23.298;2022-08-19T03:07:52;92428.94;;;19.14;100.00
18137;BME280;9194;42.632;23.298;2022-08-19T03:12:53;92422.88;;;19.13;100.00
18137;BME280;9194;42.632;23.298;2022-08-19T03:17:55;92413.63;;;19.16;100.00
18137;BME280;9194;42.632;23.298;2022-08-19T03:22:56;92410.28;;;19.05;100.00
18137;BME280;9194;42.632;23.298;2022-08-19T03:27:57;92410.88;;;18.97;100.00
18137;BME280;9194;42.632;23.298;2022-08-19T03:32:59;92416.47;;;18.91;100.00
18137;BME280;9194;42.632;23.298;2022-08-19T03:38:00;92412.31;;;18.84;100.00
18137;BME280;9194;42.632;23.298;2022-08-19T03:43:01;92413.09;;;18.85;100.00
18137;BME280;9194;42.632;23.298;2022-08-19T03:48:03;92429.44;;;18.82;100.00
18137;BME280;9194;42.632;23.298;2022-08-19T03:53:08;92436.22;;;18.93;100.00
18137;BME280;9194;42.632;23.298;2022-08-19T03:58:09;92440.72;;;18.93;100.00
18137;BME280;9194;42.632;23.298;2022-08-19T04:03:12;92442.28;;;18.94;100.00
18137;BME280;9194;42.632;23.298;2022-08-19T04:08:14;92442.75;;;19.01;100.00
18137;BME280;9194;42.632;23.298;2022-08-19T04:13:19;92442.44;;;19.07;100.00
18137;BME280;9194;42.632;23.298;2022-08-19T04:18:21;92446.25;;;19.25;100.00
18137;BME280;9194;42.632;23.298;2022-08-19T04:23:22;92457.66;;;19.20;100.00
18137;BME280;9194;42.632;23.298;2022-08-19T04:28:24;92462.03;;;19.30;100.00
18137;BME280;9194;42.632;23.298;2022-08-19T04:33:26;92457.44;;;19.46;100.00
18137;BME280;9194;42.632;23.298;2022-08-19T04:38:29;92452.56;;;19.58;100.00
18137;BME280;9194;42.632;23.298;2022-08-19T04:43:31;92450.59;;;19.68;100.00
18137;BME280;9194;42.632;23.298;2022-08-19T04:48:34;92450.97;;;19.86;100.00
18137;BME280;9194;42.632;23.298;2022-08-19T04:53:37;92448.06;;;20.06;100.00
18137;BME280;9194;42.632;23.298;2022-08-19T04:58:40;92454.97;;;20.26;100.00
18137;BME280;9194;42.632;23.298;2022-08-19T05:03:45;92462.31;;;20.53;95.61
18137;BME280;9194;42.632;23.298;2022-08-19T05:08:49;92464.81;;;20.63;96.82
18137;BME280;9194;42.632;23.298;2022-08-19T05:13:51;92469.59;;;20.79;94.25
18137;BME280;9194;42.632;23.298;2022-08-19T05:18:53;92471.53;;;20.92;92.11
18137;BME280;9194;42.632;23.298;2022-08-19T05:24:14;92459.41;;;21.05;91.03
18137;BME280;9194;42.632;23.298;2022-08-19T05:29:19;92460.56;;;21.18;91.50
18137;BME280;9194;42.632;23.298;2022-08-19T05:34:22;92459.06;;;21.30;91.09
18137;BME280;9194;42.632;23.298;2022-08-19T05:39:28;92459.97;;;21.53;88.79
18137;BME280;9194;42.632;23.298;2022-08-19T05:44:32;92461.41;;;21.78;86.00
18137;BME280;9194;42.632;23.298;2022-08-19T05:49:35;92465.03;;;21.96;82.30
18137;BME280;9194;42.632;23.298;2022-08-19T05:54:39;92460.03;;;22.08;84.81
18137;BME280;9194;42.632;23.298;2022-08-19T05:59:42;92466.03;;;22.27;88.45
18137;BME280;9194;42.632;23.298;2022-08-19T06:04:44;92464.16;;;22.41;83.41
18137;BME280;9194;42.632;23.298;2022-08-19T06:09:46;92475.22;;;22.57;82.91
18137;BME280;9194;42.632;23.298;2022-08-19T06:14:47;92464.09;;;22.69;83.49
18137;BME280;9194;42.632;23.298;2022-08-19T06:19:51;92472.53;;;22.84;84.82
18137;BME280;9194;42.632;23.298;2022-08-19T06:24:54;92462.72;;;23.07;81.12
18137;BME280;9194;42.632;23.298;2022-08-19T06:29:56;92474.78;;;23.35;82.17
18137;BME280;9194;42.632;23.298;2022-08-19T06:34:57;92482.44;;;23.51;77.30
18137;BME280;9194;42.632;23.298;2022-08-19T06:39:58;92473.91;;;23.62;76.24
18137;BME280;9194;42.632;23.298;2022-08-19T06:45:00;92471.00;;;23.72;72.25
18137;BME280;9194;42.632;23.298;2022-08-19T06:50:04;92476.81;;;23.83;70.26
18137;BME280;9194;42.632;23.298;2022-08-19T06:55:06;92481.13;;;23.93;70.25
18137;BME280;9194;42.632;23.298;2022-08-19T07:00:10;92477.41;;;24.02;68.84
18137;BME280;9194;42.632;23.298;2022-08-19T07:05:14;92493.56;;;24.14;69.55
18137;BME280;9194;42.632;23.298;2022-08-19T07:10:16;92481.88;;;24.24;70.19
18137;BME280;9194;42.632;23.298;2022-08-19T07:15:17;92485.53;;;24.37;68.99
18137;BME280;9194;42.632;23.298;2022-08-19T07:20:18;92491.22;;;24.61;70.13
18137;BME280;9194;42.632;23.298;2022-08-19T07:25:20;92495.06;;;24.94;65.09
18137;BME280;9194;42.632;23.298;2022-08-19T07:30:22;92493.19;;;25.12;66.23
18137;BME280;9194;42.632;23.298;2022-08-19T07:35:25;92491.97;;;25.27;63.15
18137;BME280;9194;42.632;23.298;2022-08-19T07:40:27;92487.25;;;25.32;63.71
18137;BME280;9194;42.632;23.298;2022-08-19T07:45:29;92489.59;;;25.43;64.57
18137;BME280;9194;42.632;23.298;2022-08-19T07:50:31;92484.13;;;25.56;65.31
18137;BME280;9194;42.632;23.298;2022-08-19T07:55:32;92487.69;;;25.69;63.38
18137;BME280;9194;42.632;23.298;2022-08-19T08:00:35;92496.72;;;26.02;60.58
18137;BME280;9194;42.632;23.298;2022-08-19T08:05:36;92499.75;;;26.22;59.95
18137;BME280;9194;42.632;23.298;2022-08-19T08:10:57;92484.75;;;26.55;59.48
18137;BME280;9194;42.632;23.298;2022-08-19T08:15:59;92484.06;;;26.67;57.41
18137;BME280;9194;42.632;23.298;2022-08-19T08:21:00;92488.34;;;26.80;53.67
18137;BME280;9194;42.632;23.298;2022-08-19T08:26:02;92475.50;;;27.03;53.41
18137;BME280;9194;42.632;23.298;2022-08-19T08:31:04;92479.28;;;27.22;50.98
18137;BME280;9194;42.632;23.298;2022-08-19T08:36:06;92480.03;;;27.44;50.44
18137;BME280;9194;42.632;23.298;2022-08-19T08:41:18;92474.34;;;27.54;49.05
18137;BME280;9194;42.632;23.298;2022-08-19T08:46:32;92475.75;;;27.72;49.53
18137;BME280;9194;42.632;23.298;2022-08-19T08:51:42;92471.00;;;27.90;48.77
18137;BME280;9194;42.632;23.298;2022-08-19T08:56:45;92462.75;;;27.95;47.70
18137;BME280;9194;42.632;23.298;2022-08-19T09:01:48;92467.25;;;28.15;48.63
18137;BME280;9194;42.632;23.298;2022-08-19T09:17:35;92456.69;;;28.43;46.17
18137;BME280;9194;42.632;23.298;2022-08-19T09:23:05;92458.38;;;28.59;45.46
18137;BME280;9194;42.632;23.298;2022-08-19T09:28:06;92455.56;;;28.80;45.82
18137;BME280;9194;42.632;23.298;2022-08-19T09:33:08;92450.97;;;29.05;46.06
18137;BME280;9194;42.632;23.298;2022-08-19T09:38:12;92442.09;;;29.17;45.90
18137;BME280;9194;42.632;23.298;2022-08-19T09:43:15;92438.09;;;29.11;44.19
18137;BME280;9194;42.632;23.298;2022-08-19T09:48:16;92442.41;;;29.27;43.75
18137;BME280;9194;42.632;23.298;2022-08-19T09:53:18;92435.53;;;29.42;43.84
18137;BME280;9194;42.632;23.298;2022-08-19T09:58:20;92432.56;;;29.59;42.80
18137;BME280;9194;42.632;23.298;2022-08-19T10:03:22;92425.09;;;29.80;41.56
18137;BME280;9194;42.632;23.298;2022-08-19T10:08:41;92416.44;;;29.87;42.04
18137;BME280;9194;42.632;23.298;2022-08-19T10:13:43;92417.84;;;29.97;41.98
18137;BME280;9194;42.632;23.298;2022-08-19T10:18:45;92411.53;;;30.05;39.58
18137;BME280;9194;42.632;23.298;2022-08-19T10:23:49;92405.72;;;30.03;40.74
18137;BME280;9194;42.632;23.298;2022-08-19T10:28:51;92410.31;;;30.02;39.61
18137;BME280;9194;42.632;23.298;2022-08-19T10:33:53;92405.31;;;30.16;38.55
18137;BME280;9194;42.632;23.298;2022-08-19T10:39:02;92402.44;;;30.09;37.84
18137;BME280;9194;42.632;23.298;2022-08-19T10:44:07;92400.69;;;30.17;37.94
18137;BME280;9194;42.632;23.298;2022-08-19T10:49:09;92399.41;;;30.27;36.71
18137;BME280;9194;42.632;23.298;2022-08-19T10:54:12;92395.94;;;30.26;36.42
18137;BME280;9194;42.632;23.298;2022-08-19T10:59:14;92391.41;;;30.30;37.71
18137;BME280;9194;42.632;23.298;2022-08-19T11:04:16;92391.59;;;30.53;38.88
18137;BME280;9194;42.632;23.298;2022-08-19T11:09:21;92381.06;;;30.64;38.29
18137;BME280;9194;42.632;23.298;2022-08-19T11:14:25;92385.69;;;30.63;38.60
18137;BME280;9194;42.632;23.298;2022-08-19T11:19:26;92394.78;;;30.58;38.13
18137;BME280;9194;42.632;23.298;2022-08-19T11:24:28;92389.56;;;30.66;38.35
18137;BME280;9194;42.632;23.298;2022-08-19T11:29:30;92376.56;;;30.68;40.39
18137;BME280;9194;42.632;23.298;2022-08-19T11:34:32;92383.41;;;30.65;38.88
18137;BME280;9194;42.632;23.298;2022-08-19T11:39:34;92368.50;;;30.68;38.90
18137;BME280;9194;42.632;23.298;2022-08-19T11:44:36;92364.81;;;30.76;39.75
18137;BME280;9194;42.632;23.298;2022-08-19T11:49:37;92356.69;;;30.72;39.28
18137;BME280;9194;42.632;23.298;2022-08-19T11:54:39;92364.56;;;30.81;40.63
18137;BME280;9194;42.632;23.298;2022-08-19T11:59:40;92363.69;;;30.77;39.13
18137;BME280;9194;42.632;23.298;2022-08-19T12:04:41;92345.22;;;30.75;40.24
18137;BME280;9194;42.632;23.298;2022-08-19T12:09:43;92346.00;;;30.76;40.72
18137;BME280;9194;42.632;23.298;2022-08-19T12:21:34;92328.75;;;30.77;40.46
18137;BME280;9194;42.632;23.298;2022-08-19T12:26:36;92324.38;;;30.88;38.66
18137;BME280;9194;42.632;23.298;2022-08-19T12:31:37;92319.94;;;30.95;39.16
18137;BME280;9194;42.632;23.298;2022-08-19T12:36:39;92322.97;;;30.94;39.17
18137;BME280;9194;42.632;23.298;2022-08-19T12:41:40;92308.34;;;30.91;38.61
18137;BME280;9194;42.632;23.298;2022-08-19T12:46:41;92312.78;;;30.84;40.11
18137;BME280;9194;42.632;23.298;2022-08-19T12:51:42;92305.94;;;30.86;38.70
18137;BME280;9194;42.632;23.298;2022-08-19T12:56:44;92303.75;;;30.92;39.27
18137;BME280;9194;42.632;23.298;2022-08-19T13:01:45;92301.97;;;30.80;38.89
18137;BME280;9194;42.632;23.298;2022-08-19T13:06:47;92298.41;;;30.76;40.09
18137;BME280;9194;42.632;23.298;2022-08-19T13:11:48;92286.34;;;30.67;39.61
18137;BME280;9194;42.632;23.298;2022-08-19T13:16:49;92281.09;;;30.74;39.85
18137;BME280;9194;42.632;23.298;2022-08-19T13:21:51;92285.69;;;30.73;39.07
18137;BME280;9194;42.632;23.298;2022-08-19T13:26:52;92286.19;;;30.79;40.37
18137;BME280;9194;42.632;23.298;2022-08-19T13:31:53;92275.59;;;30.86;39.69
18137;BME280;9194;42.632;23.298;2022-08-19T13:37:13;92277.56;;;30.89;38.63
18137;BME280;9194;42.632;23.298;2022-08-19T13:42:15;92269.06;;;30.87;41.16
18137;BME280;9194;42.632;23.298;2022-08-19T13:47:16;92265.81;;;30.78;39.15
18137;BME280;9194;42.632;23.298;2022-08-19T13:52:17;92262.28;;;30.54;39.70
18137;BME280;9194;42.632;23.298;2022-08-19T13:57:19;92257.63;;;30.51;40.86
18137;BME280;9194;42.632;23.298;2022-08-19T14:02:20;92257.53;;;30.48;40.05
18137;BME280;9194;42.632;23.298;2022-08-19T14:07:21;92255.16;;;30.46;40.21
18137;BME280;9194;42.632;23.298;2022-08-19T14:12:24;92259.69;;;30.42;40.14
18137;BME280;9194;42.632;23.298;2022-08-19T14:17:30;92257.34;;;30.41;40.38
18137;BME280;9194;42.632;23.298;2022-08-19T14:22:32;92247.63;;;30.33;40.21
18137;BME280;9194;42.632;23.298;2022-08-19T14:27:39;92251.25;;;30.25;40.86
18137;BME280;9194;42.632;23.298;2022-08-19T14:32:41;92246.63;;;30.22;42.75
18137;BME280;9194;42.632;23.298;2022-08-19T14:37:44;92241.59;;;30.20;42.00
18137;BME280;9194;42.632;23.298;2022-08-19T14:42:46;92240.03;;;30.19;40.99
18137;BME280;9194;42.632;23.298;2022-08-19T14:47:49;92241.00;;;30.11;41.77
18137;BME280;9194;42.632;23.298;2022-08-19T14:52:58;92230.22;;;30.27;40.20
18137;BME280;9194;42.632;23.298;2022-08-19T14:58:00;92227.88;;;30.25;40.94
18137;BME280;9194;42.632;23.298;2022-08-19T15:03:02;92228.56;;;30.03;47.41
18137;BME280;9194;42.632;23.298;2022-08-19T15:08:03;92233.44;;;29.66;47.51
18137;BME280;9194;42.632;23.298;2022-08-19T15:13:05;92234.84;;;29.44;48.26
18137;BME280;9194;42.632;23.298;2022-08-19T15:18:09;92235.59;;;29.29;48.18
18137;BME280;9194;42.632;23.298;2022-08-19T15:23:30;92234.38;;;29.11;49.55
18137;BME280;9194;42.632;23.298;2022-08-19T15:28:33;92224.31;;;28.92;49.26
18137;BME280;9194;42.632;23.298;2022-08-19T15:33:35;92224.66;;;28.63;51.38
18137;BME280;9194;42.632;23.298;2022-08-19T15:38:38;92219.50;;;28.42;52.42
18137;BME280;9194;42.632;23.298;2022-08-19T15:43:41;92221.13;;;28.18;53.33
18137;BME280;9194;42.632;23.298;2022-08-19T15:48:42;92228.50;;;27.97;54.39
18137;BME280;9194;42.632;23.298;2022-08-19T15:53:44;92226.84;;;27.81;54.63
18137;BME280;9194;42.632;23.298;2022-08-19T15:58:45;92227.09;;;27.63;55.33
18137;BME280;9194;42.632;23.298;2022-08-19T16:04:05;92228.63;;;27.40;56.35
18137;BME280;9194;42.632;23.298;2022-08-19T16:09:27;92223.72;;;27.18;58.60
18137;BME280;9194;42.632;23.298;2022-08-19T16:14:31;92225.88;;;26.91;59.86
18137;BME280;9194;42.632;23.298;2022-08-19T16:19:32;92234.16;;;26.66;60.87
18137;BME280;9194;42.632;23.298;2022-08-19T16:24:34;92228.41;;;26.43;61.03
18137;BME280;9194;42.632;23.298;2022-08-19T16:29:35;92238.94;;;26.18;62.51
18137;BME280;9194;42.632;23.298;2022-08-19T16:34:38;92230.59;;;25.99;62.55
18137;BME280;9194;42.632;23.298;2022-08-19T16:39:40;92236.50;;;25.84;62.22
18137;BME280;9194;42.632;23.298;2022-08-19T16:44:43;92235.38;;;25.64;63.58
18137;BME280;9194;42.632;23.298;2022-08-19T16:49:45;92246.56;;;25.49;63.28
18137;BME280;9194;42.632;23.298;2022-08-19T16:54:47;92238.97;;;25.30;63.27
18137;BME280;9194;42.632;23.298;2022-08-19T16:59:48;92242.19;;;25.15;64.46
18137;BME280;9194;42.632;23.298;2022-08-19T17:04:52;92246.31;;;24.95;65.90
18137;BME280;9194;42.632;23.298;2022-08-19T17:09:54;92255.41;;;24.77;66.00
18137;BME280;9194;42.632;23.298;2022-08-19T17:14:56;92261.53;;;24.61;67.66
18137;BME280;9194;42.632;23.298;2022-08-19T17:19:58;92265.63;;;24.41;67.41
18137;BME280;9194;42.632;23.298;2022-08-19T17:25:00;92270.94;;;24.24;69.01
18137;BME280;9194;42.632;23.298;2022-08-19T17:30:04;92274.53;;;24.10;68.95
18137;BME280;9194;42.632;23.298;2022-08-19T17:35:07;92287.81;;;24.02;69.29
18137;BME280;9194;42.632;23.298;2022-08-19T17:40:09;92291.38;;;23.89;69.61
18137;BME280;9194;42.632;23.298;2022-08-19T17:45:11;92289.94;;;23.83;70.40
18137;BME280;9194;42.632;23.298;2022-08-19T17:50:12;92298.22;;;23.72;71.99
18137;BME280;9194;42.632;23.298;2022-08-19T17:55:14;92302.41;;;23.65;69.98
18137;BME280;9194;42.632;23.298;2022-08-19T18:00:17;92302.56;;;23.60;71.17
18137;BME280;9194;42.632;23.298;2022-08-19T18:05:23;92311.47;;;23.55;70.08
18137;BME280;9194;42.632;23.298;2022-08-19T18:10:30;92305.38;;;23.55;70.16
18137;BME280;9194;42.632;23.298;2022-08-19T18:15:32;92309.09;;;23.54;69.96
18137;BME280;9194;42.632;23.298;2022-08-19T18:20:33;92307.88;;;23.51;70.02
18137;BME280;9194;42.632;23.298;2022-08-19T18:25:35;92313.09;;;23.43;70.41
18137;BME280;9194;42.632;23.298;2022-08-19T18:30:36;92317.63;;;23.42;69.24
18137;BME280;9194;42.632;23.298;2022-08-19T18:35:37;92314.53;;;23.40;70.31
18137;BME280;9194;42.632;23.298;2022-08-19T18:40:39;92317.63;;;23.33;72.19
18137;BME280;9194;42.632;23.298;2022-08-19T18:45:59;92309.28;;;23.26;71.96
18137;BME280;9194;42.632;23.298;2022-08-19T18:51:19;92313.19;;;23.20;71.64
18137;BME280;9194;42.632;23.298;2022-08-19T18:56:21;92310.34;;;23.17;72.71
18137;BME280;9194;42.632;23.298;2022-08-19T19:01:27;92318.47;;;23.12;72.71
18137;BME280;9194;42.632;23.298;2022-08-19T19:06:32;92319.34;;;23.07;73.85
18137;BME280;9194;42.632;23.298;2022-08-19T19:11:59;92334.81;;;23.05;72.77
18137;BME280;9194;42.632;23.298;2022-08-19T19:17:04;92334.31;;;23.03;73.45
18137;BME280;9194;42.632;23.298;2022-08-19T19:22:17;92346.66;;;22.99;73.91
18137;BME280;9194;42.632;23.298;2022-08-19T19:27:19;92347.19;;;22.87;74.79
18137;BME280;9194;42.632;23.298;2022-08-19T19:32:26;92355.59;;;22.81;75.03
18137;BME280;9194;42.632;23.298;2022-08-19T19:37:28;92359.81;;;22.82;74.93
18137;BME280;9194;42.632;23.298;2022-08-19T19:42:29;92365.25;;;22.77;76.27
18137;BME280;9194;42.632;23.298;2022-08-19T19:47:30;92355.22;;;22.74;76.47
18137;BME280;9194;42.632;23.298;2022-08-19T19:52:32;92357.88;;;22.74;75.84
18137;BME280;9194;42.632;23.298;2022-08-19T19:57:33;92362.47;;;22.68;76.78
18137;BME280;9194;42.632;23.298;2022-08-19T20:02:34;92365.84;;;22.60;78.03
18137;BME280;9194;42.632;23.298;2022-08-19T20:07:37;92365.97;;;22.55;78.73
18137;BME280;9194;42.632;23.298;2022-08-19T20:12:59;92361.94;;;22.58;76.04
18137;BME280;9194;42.632;23.298;2022-08-19T20:18:02;92356.59;;;22.71;74.44
18137;BME280;9194;42.632;23.298;2022-08-19T20:29:34;92362.47;;;22.82;74.44
18137;BME280;9194;42.632;23.298;2022-08-19T20:34:38;92362.59;;;22.77;74.86
18137;BME280;9194;42.632;23.298;2022-08-19T20:39:39;92360.22;;;22.75;75.13
18137;BME280;9194;42.632;23.298;2022-08-19T20:44:40;92371.44;;;22.72;74.56
18137;BME280;9194;42.632;23.298;2022-08-19T20:49:41;92369.94;;;22.80;72.69
18137;BME280;9194;42.632;23.298;2022-08-19T20:54:43;92372.47;;;22.85;72.31
18137;BME280;9194;42.632;23.298;2022-08-19T20:59:44;92375.50;;;22.92;71.68
18137;BME280;9194;42.632;23.298;2022-08-19T21:04:48;92373.66;;;23.01;70.58
18137;BME280;9194;42.632;23.298;2022-08-19T21:09:49;92372.81;;;23.14;68.35
18137;BME280;9194;42.632;23.298;2022-08-19T21:14:52;92371.75;;;23.24;67.62
18137;BME280;9194;42.632;23.298;2022-08-19T21:25:18;92364.34;;;23.12;70.73
18137;BME280;9194;42.632;23.298;2022-08-19T21:30:19;92366.38;;;22.84;76.87
18137;BME280;9194;42.632;23.298;2022-08-19T21:35:22;92360.06;;;22.58;80.50
18137;BME280;9194;42.632;23.298;2022-08-19T21:40:24;92355.03;;;22.34;81.00
18137;BME280;9194;42.632;23.298;2022-08-19T21:45:26;92359.47;;;22.25;82.26
18137;BME280;9194;42.632;23.298;2022-08-19T21:50:27;92352.69;;;22.19;82.52
18137;BME280;9194;42.632;23.298;2022-08-19T21:55:32;92352.03;;;22.13;84.98
18137;BME280;9194;42.632;23.298;2022-08-19T22:00:33;92344.78;;;21.92;84.76
18137;BME280;9194;42.632;23.298;2022-08-19T22:05:35;92350.88;;;21.79;86.45
18137;BME280;9194;42.632;23.298;2022-08-19T22:10:36;92345.31;;;21.66;86.55
18137;BME280;9194;42.632;23.298;2022-08-19T22:15:38;92341.19;;;21.60;85.27
18137;BME280;9194;42.632;23.298;2022-08-19T22:20:39;92336.56;;;21.52;87.56
18137;BME280;9194;42.632;23.298;2022-08-19T22:25:44;92328.13;;;21.50;86.49
18137;BME280;9194;42.632;23.298;2022-08-19T22:30:45;92317.53;;;21.37;88.68
18137;BME280;9194;42.632;23.298;2022-08-19T22:35:50;92321.16;;;21.27;87.84
18137;BME280;9194;42.632;23.298;2022-08-19T22:40:52;92310.09;;;21.25;88.28
18137;BME280;9194;42.632;23.298;2022-08-19T22:45:54;92297.72;;;21.34;86.21
18137;BME280;9194;42.632;23.298;2022-08-19T22:50:57;92297.06;;;21.42;86.63
18137;BME280;9194;42.632;23.298;2022-08-19T22:56:18;92312.81;;;21.34;87.31
18137;BME280;9194;42.632;23.298;2022-08-19T23:01:21;92303.72;;;21.40;85.81
18137;BME280;9194;42.632;23.298;2022-08-19T23:06:23;92302.22;;;21.34;86.37
18137;BME280;9194;42.632;23.298;2022-08-19T23:11:24;92293.59;;;21.28;86.23
18137;BME280;9194;42.632;23.298;2022-08-19T23:16:26;92300.56;;;21.24;86.41
18137;BME280;9194;42.632;23.298;2022-08-19T23:21:28;92295.94;;;21.16;86.85
18137;BME280;9194;42.632;23.298;2022-08-19T23:26:29;92296.53;;;21.13;87.12
18137;BME280;9194;42.632;23.298;2022-08-19T23:31:31;92286.69;;;21.00;88.69
18137;BME280;9194;42.632;23.298;2022-08-19T23:36:33;92270.63;;;21.10;87.12
18137;BME280;9194;42.632;23.298;2022-08-19T23:41:34;92272.19;;;21.11;83.92
18137;BME280;9194;42.632;23.298;2022-08-19T23:46:35;92268.41;;;21.17;85.56
18137;BME280;9194;42.632;23.298;2022-08-19T23:51:37;92263.22;;;21.25;86.89
18137;BME280;9194;42.632;23.298;2022-08-19T23:56:39;92264.88;;;21.21;87.72
